LRS1062 MROC-MPBO
Flight info
| Callsign | LRS1062 |
|---|---|
| Flight time | 0h 51m |
| Altitude | 11000 |
| Route | TEJAR4M LIO DCT BDT |
| Aircraft | C208/L-SDFGRY/C |
Departure
| Time | 2026-04-26 19:47 |
|---|---|
| Airport | Juan Santamaría International Airport (MROC) |
Arrival
| Time | 2026-04-26 20:39 |
|---|---|
| Airport | Bocas del Toro "Isla Colón" International Airport (MPBO) |
| Time | Latitude | Longitude | Altitude | Speed | Heading |
|---|---|---|---|---|---|
| 2026-04-26 19:33 | 9.99774 | -84.20879 | 3033 ft | 0 kts | 141° |
| 2026-04-26 19:39 | 9.99767 | -84.20877 | 3033 ft | 5 kts | 184° |
| 2026-04-26 19:39 | 9.99698 | -84.20918 | 3033 ft | 13 kts | 219° |
| 2026-04-26 19:40 | 9.99614 | -84.20901 | 3031 ft | 16 kts | 161° |
| 2026-04-26 19:40 | 9.99498 | -84.20868 | 3033 ft | 11 kts | 221° |
| 2026-04-26 19:40 | 9.99519 | -84.20942 | 3026 ft | 20 kts | 342° |
| 2026-04-26 19:40 | 9.99527 | -84.21047 | 3017 ft | 14 kts | 167° |
| 2026-04-26 19:41 | 9.99513 | -84.21043 | 3017 ft | 0 kts | 156° |
| 2026-04-26 19:43 | 9.99510 | -84.21042 | 3017 ft | 2 kts | 156° |
| 2026-04-26 19:43 | 9.99531 | -84.21072 | 3015 ft | 15 kts | 303° |
| 2026-04-26 19:43 | 9.99474 | -84.21209 | 3003 ft | 25 kts | 181° |
| 2026-04-26 19:44 | 9.99397 | -84.21123 | 3006 ft | 19 kts | 72° |
| 2026-04-26 19:44 | 9.99445 | -84.20991 | 3022 ft | 21 kts | 71° |
| 2026-04-26 19:44 | 9.99506 | -84.20834 | 3033 ft | 28 kts | 69° |
| 2026-04-26 19:44 | 9.99586 | -84.20613 | 3034 ft | 38 kts | 69° |
| 2026-04-26 19:45 | 9.99691 | -84.20337 | 3032 ft | 46 kts | 69° |
| 2026-04-26 19:45 | 9.99801 | -84.20045 | 3034 ft | 22 kts | 75° |
| 2026-04-26 19:45 | 9.99797 | -84.20024 | 3032 ft | 0 kts | 124° |
| 2026-04-26 19:45 | 9.99797 | -84.20023 | 3032 ft | 2 kts | 124° |
| 2026-04-26 19:46 | 9.99712 | -84.20026 | 3036 ft | 25 kts | 250° |
| 2026-04-26 19:46 | 9.99610 | -84.20303 | 3037 ft | 63 kts | 250° |
| 2026-04-26 19:46 | 9.99408 | -84.20839 | 3023 ft | 98 kts | 249° |
| 2026-04-26 19:46 | 9.99175 | -84.21530 | 3204 ft | 104 kts | 250° |
| 2026-04-26 19:47 | 9.98958 | -84.22222 | 3436 ft | 104 kts | 250° |
| 2026-04-26 19:47 | 9.98801 | -84.22672 | 3615 ft | 101 kts | 246° |
| 2026-04-26 19:47 | 9.98483 | -84.23560 | 3975 ft | 101 kts | 250° |
| 2026-04-26 19:47 | 9.98234 | -84.24222 | 4236 ft | 99 kts | 231° |
| 2026-04-26 19:48 | 9.97623 | -84.24505 | 4506 ft | 100 kts | 192° |
| 2026-04-26 19:48 | 9.96923 | -84.24603 | 4704 ft | 106 kts | 193° |
| 2026-04-26 19:48 | 9.96168 | -84.24725 | 4871 ft | 114 kts | 192° |
| 2026-04-26 19:48 | 9.95361 | -84.24855 | 5033 ft | 121 kts | 192° |
| 2026-04-26 19:49 | 9.94516 | -84.24997 | 5208 ft | 125 kts | 191° |
| 2026-04-26 19:49 | 9.93635 | -84.25119 | 5374 ft | 129 kts | 188° |
| 2026-04-26 19:49 | 9.92743 | -84.25257 | 5535 ft | 133 kts | 189° |
| 2026-04-26 19:49 | 9.91824 | -84.25407 | 5687 ft | 135 kts | 189° |
| 2026-04-26 19:50 | 9.90887 | -84.25562 | 5846 ft | 137 kts | 188° |
| 2026-04-26 19:50 | 9.89946 | -84.25716 | 5998 ft | 137 kts | 188° |
| 2026-04-26 19:50 | 9.88994 | -84.25850 | 6150 ft | 139 kts | 179° |
| 2026-04-26 19:50 | 9.88086 | -84.25551 | 6307 ft | 139 kts | 145° |
| 2026-04-26 19:51 | 9.87304 | -84.24973 | 6486 ft | 137 kts | 144° |
| 2026-04-26 19:51 | 9.86540 | -84.24431 | 6754 ft | 131 kts | 144° |
| 2026-04-26 19:51 | 9.85813 | -84.23912 | 7018 ft | 125 kts | 144° |
| 2026-04-26 19:51 | 9.85113 | -84.23412 | 7275 ft | 121 kts | 144° |
| 2026-04-26 19:52 | 9.84432 | -84.22925 | 7521 ft | 118 kts | 144° |
| 2026-04-26 19:52 | 9.83769 | -84.22450 | 7793 ft | 115 kts | 144° |
| 2026-04-26 19:52 | 9.83134 | -84.21995 | 8044 ft | 112 kts | 143° |
| 2026-04-26 19:52 | 9.82477 | -84.21522 | 8199 ft | 118 kts | 144° |
| 2026-04-26 19:53 | 9.81798 | -84.21037 | 8335 ft | 123 kts | 144° |
| 2026-04-26 19:53 | 9.81083 | -84.20527 | 8469 ft | 127 kts | 144° |
| 2026-04-26 19:53 | 9.80442 | -84.19908 | 8607 ft | 130 kts | 116° |
| 2026-04-26 19:53 | 9.80263 | -84.19012 | 8753 ft | 132 kts | 85° |
| 2026-04-26 19:54 | 9.80351 | -84.18077 | 8894 ft | 135 kts | 85° |
| 2026-04-26 19:54 | 9.80424 | -84.17120 | 9031 ft | 137 kts | 85° |
| 2026-04-26 19:54 | 9.80499 | -84.16146 | 9166 ft | 139 kts | 85° |
| 2026-04-26 19:54 | 9.80575 | -84.15163 | 9298 ft | 141 kts | 85° |
| 2026-04-26 19:55 | 9.80653 | -84.14162 | 9430 ft | 143 kts | 85° |
| 2026-04-26 19:55 | 9.80731 | -84.13154 | 9561 ft | 144 kts | 85° |
| 2026-04-26 19:55 | 9.80808 | -84.12142 | 9709 ft | 144 kts | 85° |
| 2026-04-26 19:55 | 9.80884 | -84.11138 | 9882 ft | 142 kts | 85° |
| 2026-04-26 19:56 | 9.80961 | -84.10158 | 10050 ft | 140 kts | 85° |
| 2026-04-26 19:56 | 9.81037 | -84.09175 | 10220 ft | 139 kts | 85° |
| 2026-04-26 19:56 | 9.81112 | -84.08199 | 10391 ft | 138 kts | 85° |
| 2026-04-26 19:56 | 9.81188 | -84.07231 | 10562 ft | 137 kts | 85° |
| 2026-04-26 19:57 | 9.81261 | -84.06270 | 10732 ft | 137 kts | 85° |
| 2026-04-26 19:57 | 9.81334 | -84.05303 | 10845 ft | 141 kts | 85° |
| 2026-04-26 19:57 | 9.81410 | -84.04292 | 10930 ft | 146 kts | 85° |
| 2026-04-26 19:57 | 9.81491 | -84.03251 | 11002 ft | 151 kts | 85° |
| 2026-04-26 19:58 | 9.81576 | -84.02160 | 11001 ft | 156 kts | 85° |
| 2026-04-26 19:58 | 9.81668 | -84.01041 | 10996 ft | 160 kts | 85° |
| 2026-04-26 19:58 | 9.81754 | -83.99921 | 11000 ft | 160 kts | 85° |
| 2026-04-26 19:58 | 9.81839 | -83.98792 | 10993 ft | 159 kts | 85° |
| 2026-04-26 19:59 | 9.81930 | -83.97678 | 10989 ft | 158 kts | 85° |
| 2026-04-26 19:59 | 9.82015 | -83.96567 | 10992 ft | 158 kts | 85° |
| 2026-04-26 19:59 | 9.82090 | -83.95455 | 10989 ft | 160 kts | 90° |
| 2026-04-26 19:59 | 9.81854 | -83.94364 | 10981 ft | 159 kts | 108° |
| 2026-04-26 20:00 | 9.81542 | -83.93289 | 10986 ft | 158 kts | 105° |
| 2026-04-26 20:00 | 9.81245 | -83.92214 | 10986 ft | 158 kts | 105° |
| 2026-04-26 20:00 | 9.80944 | -83.91138 | 10988 ft | 160 kts | 105° |
| 2026-04-26 20:00 | 9.80646 | -83.90077 | 10988 ft | 158 kts | 105° |
| 2026-04-26 20:01 | 9.80344 | -83.89004 | 10985 ft | 158 kts | 105° |
| 2026-04-26 20:01 | 9.80044 | -83.87938 | 10986 ft | 158 kts | 106° |
| 2026-04-26 20:01 | 9.79740 | -83.86846 | 10992 ft | 161 kts | 105° |
| 2026-04-26 20:01 | 9.79436 | -83.85751 | 10984 ft | 160 kts | 105° |
| 2026-04-26 20:02 | 9.79129 | -83.84678 | 10977 ft | 159 kts | 106° |
| 2026-04-26 20:02 | 9.78824 | -83.83600 | 10976 ft | 158 kts | 105° |
| 2026-04-26 20:02 | 9.78527 | -83.82523 | 10976 ft | 158 kts | 105° |
| 2026-04-26 20:02 | 9.78329 | -83.81814 | 10970 ft | 157 kts | 105° |
| 2026-04-26 20:03 | 9.77923 | -83.80391 | 10968 ft | 157 kts | 107° |
| 2026-04-26 20:03 | 9.77615 | -83.79328 | 10967 ft | 157 kts | 106° |
| 2026-04-26 20:03 | 9.77316 | -83.78267 | 10966 ft | 157 kts | 106° |
| 2026-04-26 20:03 | 9.77018 | -83.77205 | 10965 ft | 157 kts | 106° |
| 2026-04-26 20:04 | 9.76724 | -83.76156 | 10965 ft | 156 kts | 106° |
| 2026-04-26 20:04 | 9.76426 | -83.75097 | 10965 ft | 156 kts | 106° |
| 2026-04-26 20:04 | 9.76127 | -83.74035 | 10961 ft | 157 kts | 106° |
| 2026-04-26 20:04 | 9.75827 | -83.72969 | 10961 ft | 157 kts | 106° |
| 2026-04-26 20:05 | 9.75527 | -83.71903 | 10962 ft | 157 kts | 106° |
| 2026-04-26 20:05 | 9.75225 | -83.70835 | 10960 ft | 158 kts | 106° |
| 2026-04-26 20:05 | 9.74924 | -83.69761 | 10950 ft | 159 kts | 106° |
| 2026-04-26 20:05 | 9.74620 | -83.68685 | 10949 ft | 158 kts | 106° |
| 2026-04-26 20:06 | 9.74317 | -83.67612 | 10950 ft | 159 kts | 106° |
| 2026-04-26 20:06 | 9.74016 | -83.66533 | 10952 ft | 159 kts | 106° |
| 2026-04-26 20:06 | 9.73712 | -83.65452 | 10943 ft | 160 kts | 106° |
| 2026-04-26 20:06 | 9.73409 | -83.64381 | 10944 ft | 159 kts | 106° |
| 2026-04-26 20:07 | 9.73105 | -83.63299 | 10942 ft | 159 kts | 106° |
| 2026-04-26 20:07 | 9.72803 | -83.62225 | 10931 ft | 158 kts | 106° |
| 2026-04-26 20:07 | 9.72502 | -83.61158 | 10949 ft | 157 kts | 106° |
| 2026-04-26 20:07 | 9.72202 | -83.60091 | 10950 ft | 158 kts | 106° |
| 2026-04-26 20:08 | 9.71898 | -83.59016 | 10949 ft | 159 kts | 106° |
| 2026-04-26 20:08 | 9.71595 | -83.57942 | 10948 ft | 158 kts | 105° |
| 2026-04-26 20:08 | 9.71295 | -83.56877 | 10948 ft | 157 kts | 106° |
| 2026-04-26 20:08 | 9.70995 | -83.55811 | 10949 ft | 157 kts | 105° |
| 2026-04-26 20:09 | 9.70692 | -83.54741 | 10949 ft | 157 kts | 105° |
| 2026-04-26 20:09 | 9.70393 | -83.53676 | 10947 ft | 157 kts | 106° |
| 2026-04-26 20:09 | 9.70095 | -83.52616 | 10944 ft | 156 kts | 105° |
| 2026-04-26 20:09 | 9.69797 | -83.51559 | 10935 ft | 158 kts | 106° |
| 2026-04-26 20:10 | 9.69487 | -83.50468 | 10926 ft | 164 kts | 106° |
| 2026-04-26 20:10 | 9.69168 | -83.49345 | 10930 ft | 168 kts | 106° |
| 2026-04-26 20:10 | 9.68847 | -83.48210 | 10928 ft | 170 kts | 105° |
| 2026-04-26 20:10 | 9.68520 | -83.47050 | 10925 ft | 172 kts | 105° |
| 2026-04-26 20:11 | 9.68190 | -83.45880 | 10915 ft | 173 kts | 106° |
| 2026-04-26 20:11 | 9.67858 | -83.44705 | 10918 ft | 174 kts | 105° |
| 2026-04-26 20:11 | 9.67525 | -83.43526 | 10915 ft | 174 kts | 106° |
| 2026-04-26 20:12 | 9.66858 | -83.41161 | 10916 ft | 174 kts | 105° |
| 2026-04-26 20:12 | 9.66523 | -83.39977 | 10904 ft | 175 kts | 106° |
| 2026-04-26 20:12 | 9.66190 | -83.38798 | 10906 ft | 174 kts | 106° |
| 2026-04-26 20:12 | 9.65855 | -83.37614 | 10907 ft | 174 kts | 105° |
| 2026-04-26 20:13 | 9.65523 | -83.36432 | 10905 ft | 174 kts | 106° |
| 2026-04-26 20:13 | 9.65188 | -83.35249 | 10904 ft | 174 kts | 106° |
| 2026-04-26 20:13 | 9.64855 | -83.34068 | 10896 ft | 175 kts | 106° |
| 2026-04-26 20:13 | 9.64521 | -83.32891 | 10897 ft | 174 kts | 106° |
| 2026-04-26 20:14 | 9.64190 | -83.31723 | 10898 ft | 174 kts | 105° |
| 2026-04-26 20:14 | 9.63851 | -83.30522 | 10897 ft | 175 kts | 105° |
| 2026-04-26 20:14 | 9.63519 | -83.29337 | 10895 ft | 175 kts | 105° |
| 2026-04-26 20:14 | 9.63183 | -83.28153 | 10893 ft | 175 kts | 105° |
| 2026-04-26 20:15 | 9.62845 | -83.26973 | 10897 ft | 175 kts | 106° |
| 2026-04-26 20:15 | 9.62515 | -83.25808 | 10889 ft | 176 kts | 105° |
| 2026-04-26 20:15 | 9.62178 | -83.24614 | 10887 ft | 175 kts | 105° |
| 2026-04-26 20:15 | 9.61843 | -83.23427 | 10888 ft | 175 kts | 105° |
| 2026-04-26 20:16 | 9.61508 | -83.22241 | 10888 ft | 175 kts | 105° |
| 2026-04-26 20:16 | 9.61172 | -83.21054 | 10888 ft | 175 kts | 105° |
| 2026-04-26 20:16 | 9.60836 | -83.19870 | 10888 ft | 175 kts | 105° |
| 2026-04-26 20:16 | 9.60501 | -83.18686 | 10889 ft | 175 kts | 105° |
| 2026-04-26 20:17 | 9.60166 | -83.17505 | 10888 ft | 175 kts | 105° |
| 2026-04-26 20:17 | 9.59831 | -83.16322 | 10887 ft | 175 kts | 105° |
| 2026-04-26 20:17 | 9.59497 | -83.15137 | 10888 ft | 175 kts | 105° |
| 2026-04-26 20:17 | 9.59274 | -83.14354 | 10888 ft | 175 kts | 105° |
| 2026-04-26 20:18 | 9.58829 | -83.12781 | 10890 ft | 175 kts | 105° |
| 2026-04-26 20:18 | 9.58493 | -83.11595 | 10886 ft | 175 kts | 105° |
| 2026-04-26 20:18 | 9.58157 | -83.10410 | 10887 ft | 175 kts | 105° |
| 2026-04-26 20:18 | 9.57930 | -83.09609 | 10888 ft | 175 kts | 105° |
| 2026-04-26 20:19 | 9.57595 | -83.08419 | 10888 ft | 175 kts | 105° |
| 2026-04-26 20:19 | 9.57256 | -83.07235 | 10885 ft | 175 kts | 105° |
| 2026-04-26 20:19 | 9.56924 | -83.06066 | 10884 ft | 175 kts | 105° |
| 2026-04-26 20:19 | 9.56589 | -83.04882 | 10878 ft | 175 kts | 105° |
| 2026-04-26 20:20 | 9.56252 | -83.03695 | 10879 ft | 175 kts | 105° |
| 2026-04-26 20:20 | 9.55917 | -83.02512 | 10876 ft | 175 kts | 105° |
| 2026-04-26 20:20 | 9.55580 | -83.01323 | 10867 ft | 176 kts | 105° |
| 2026-04-26 20:20 | 9.55243 | -83.00135 | 10865 ft | 176 kts | 105° |
| 2026-04-26 20:21 | 9.54905 | -82.98946 | 10868 ft | 176 kts | 105° |
| 2026-04-26 20:21 | 9.54568 | -82.97757 | 10865 ft | 176 kts | 105° |
| 2026-04-26 20:21 | 9.54230 | -82.96568 | 10867 ft | 175 kts | 105° |
| 2026-04-26 20:21 | 9.53893 | -82.95382 | 10869 ft | 175 kts | 105° |
| 2026-04-26 20:22 | 9.53557 | -82.94197 | 10871 ft | 175 kts | 105° |
| 2026-04-26 20:22 | 9.53224 | -82.93026 | 10866 ft | 175 kts | 105° |
| 2026-04-26 20:22 | 9.52883 | -82.91824 | 10865 ft | 175 kts | 105° |
| 2026-04-26 20:22 | 9.52546 | -82.90639 | 10864 ft | 175 kts | 105° |
| 2026-04-26 20:23 | 9.52209 | -82.89452 | 10862 ft | 175 kts | 105° |
| 2026-04-26 20:23 | 9.51872 | -82.88266 | 10861 ft | 175 kts | 105° |
| 2026-04-26 20:23 | 9.51534 | -82.87078 | 10859 ft | 175 kts | 105° |
| 2026-04-26 20:23 | 9.51201 | -82.85908 | 10860 ft | 175 kts | 105° |
| 2026-04-26 20:24 | 9.50864 | -82.84720 | 10859 ft | 175 kts | 105° |
| 2026-04-26 20:24 | 9.50526 | -82.83535 | 10857 ft | 175 kts | 105° |
| 2026-04-26 20:24 | 9.50190 | -82.82347 | 10863 ft | 176 kts | 105° |
| 2026-04-26 20:24 | 9.49851 | -82.81157 | 10860 ft | 176 kts | 105° |
| 2026-04-26 20:25 | 9.49513 | -82.79967 | 10855 ft | 176 kts | 105° |
| 2026-04-26 20:25 | 9.49288 | -82.79178 | 10854 ft | 176 kts | 105° |
| 2026-04-26 20:25 | 9.48835 | -82.77586 | 10854 ft | 176 kts | 105° |
| 2026-04-26 20:25 | 9.48496 | -82.76397 | 10854 ft | 176 kts | 105° |
| 2026-04-26 20:26 | 9.48158 | -82.75208 | 10854 ft | 176 kts | 105° |
| 2026-04-26 20:26 | 9.47820 | -82.74017 | 10858 ft | 176 kts | 105° |
| 2026-04-26 20:26 | 9.47481 | -82.72829 | 10854 ft | 176 kts | 105° |
| 2026-04-26 20:26 | 9.47142 | -82.71641 | 10854 ft | 176 kts | 105° |
| 2026-04-26 20:27 | 9.46805 | -82.70453 | 10854 ft | 176 kts | 105° |
| 2026-04-26 20:27 | 9.46467 | -82.69267 | 10854 ft | 175 kts | 105° |
| 2026-04-26 20:27 | 9.46128 | -82.68080 | 10855 ft | 175 kts | 105° |
| 2026-04-26 20:27 | 9.45790 | -82.66890 | 10854 ft | 176 kts | 105° |
| 2026-04-26 20:28 | 9.45451 | -82.65702 | 10854 ft | 176 kts | 105° |
| 2026-04-26 20:28 | 9.45112 | -82.64512 | 10854 ft | 176 kts | 105° |
| 2026-04-26 20:28 | 9.44776 | -82.63332 | 10854 ft | 176 kts | 105° |
| 2026-04-26 20:28 | 9.44423 | -82.62139 | 10853 ft | 176 kts | 109° |
| 2026-04-26 20:29 | 9.43951 | -82.60976 | 10721 ft | 179 kts | 112° |
| 2026-04-26 20:29 | 9.43485 | -82.59848 | 10503 ft | 167 kts | 111° |
| 2026-04-26 20:29 | 9.43073 | -82.58787 | 10227 ft | 157 kts | 110° |
| 2026-04-26 20:29 | 9.42683 | -82.57781 | 9957 ft | 152 kts | 110° |
| 2026-04-26 20:30 | 9.42299 | -82.56797 | 9692 ft | 149 kts | 111° |
| 2026-04-26 20:30 | 9.41922 | -82.55832 | 9431 ft | 146 kts | 110° |
| 2026-04-26 20:30 | 9.41549 | -82.54878 | 9173 ft | 145 kts | 110° |
| 2026-04-26 20:30 | 9.41179 | -82.53932 | 8916 ft | 143 kts | 110° |
| 2026-04-26 20:31 | 9.40812 | -82.52994 | 8618 ft | 144 kts | 110° |
| 2026-04-26 20:31 | 9.40450 | -82.52065 | 8326 ft | 144 kts | 110° |
| 2026-04-26 20:31 | 9.40077 | -82.51115 | 8030 ft | 145 kts | 110° |
| 2026-04-26 20:31 | 9.39707 | -82.50166 | 7734 ft | 145 kts | 110° |
| 2026-04-26 20:32 | 9.39335 | -82.49214 | 7436 ft | 144 kts | 110° |
| 2026-04-26 20:32 | 9.38969 | -82.48274 | 7136 ft | 143 kts | 111° |
| 2026-04-26 20:32 | 9.38601 | -82.47334 | 6839 ft | 144 kts | 111° |
| 2026-04-26 20:32 | 9.38232 | -82.46396 | 6540 ft | 143 kts | 111° |
| 2026-04-26 20:33 | 9.37862 | -82.45457 | 6241 ft | 142 kts | 111° |
| 2026-04-26 20:33 | 9.37499 | -82.44526 | 5940 ft | 141 kts | 111° |
| 2026-04-26 20:33 | 9.37138 | -82.43600 | 5641 ft | 141 kts | 111° |
| 2026-04-26 20:33 | 9.36778 | -82.42679 | 5341 ft | 140 kts | 111° |
| 2026-04-26 20:34 | 9.36420 | -82.41762 | 5033 ft | 139 kts | 111° |
| 2026-04-26 20:34 | 9.36062 | -82.40850 | 4741 ft | 139 kts | 111° |
| 2026-04-26 20:34 | 9.35707 | -82.39944 | 4442 ft | 138 kts | 111° |
| 2026-04-26 20:34 | 9.35358 | -82.39051 | 4107 ft | 139 kts | 111° |
| 2026-04-26 20:35 | 9.34996 | -82.38125 | 3722 ft | 143 kts | 111° |
| 2026-04-26 20:35 | 9.34625 | -82.37178 | 3328 ft | 145 kts | 111° |
| 2026-04-26 20:35 | 9.34254 | -82.36231 | 2937 ft | 145 kts | 111° |
| 2026-04-26 20:35 | 9.33885 | -82.35284 | 2537 ft | 144 kts | 111° |
| 2026-04-26 20:36 | 9.33579 | -82.34322 | 2143 ft | 144 kts | 95° |
| 2026-04-26 20:36 | 9.33637 | -82.33326 | 1767 ft | 138 kts | 86° |
| 2026-04-26 20:36 | 9.33692 | -82.32364 | 1382 ft | 135 kts | 87° |
| 2026-04-26 20:36 | 9.33742 | -82.31417 | 1002 ft | 134 kts | 87° |
| 2026-04-26 20:37 | 9.33794 | -82.30506 | 737 ft | 126 kts | 86° |
| 2026-04-26 20:37 | 9.33874 | -82.29629 | 507 ft | 121 kts | 85° |
| 2026-04-26 20:37 | 9.33917 | -82.28795 | 338 ft | 116 kts | 89° |
| 2026-04-26 20:37 | 9.33927 | -82.27977 | 225 ft | 117 kts | 88° |
| 2026-04-26 20:38 | 9.33975 | -82.27163 | 161 ft | 115 kts | 87° |
| 2026-04-26 20:38 | 9.34017 | -82.26354 | 110 ft | 114 kts | 87° |
| 2026-04-26 20:38 | 9.34058 | -82.25595 | 18 ft | 104 kts | 87° |
| 2026-04-26 20:38 | 9.34091 | -82.24954 | 9 ft | 74 kts | 86° |
| 2026-04-26 20:39 | 9.34114 | -82.24561 | 10 ft | 34 kts | 84° |
| 2026-04-26 20:39 | 9.34118 | -82.24479 | 10 ft | 10 kts | 87° |
| 2026-04-26 20:39 | 9.34087 | -82.24435 | 9 ft | 13 kts | 236° |
| 2026-04-26 20:39 | 9.34081 | -82.24470 | 9 ft | 0 kts | 279° |